createdAt,value
2019-01-30T00:01:15.090Z,6.10
2019-01-30T00:06:22.962Z,6.53
2019-01-30T00:11:28.951Z,6.47
2019-01-30T00:16:37.938Z,7.90
2019-01-30T00:21:45.557Z,6.37
2019-01-30T00:26:53.238Z,6.87
2019-01-30T00:31:59.173Z,9.33
2019-01-30T00:37:06.128Z,7.03
2019-01-30T00:42:14.227Z,8.50
2019-01-30T00:47:21.753Z,6.13
2019-01-30T00:52:28.036Z,8.30
2019-01-30T00:57:35.079Z,7.70
2019-01-30T01:02:42.173Z,8.27
2019-01-30T01:07:49.616Z,7.47
2019-01-30T01:12:58.554Z,7.57
2019-01-30T01:18:05.755Z,6.37
2019-01-30T01:23:13.484Z,7.10
2019-01-30T01:28:23.057Z,6.03
2019-01-30T01:33:32.253Z,7.00
2019-01-30T01:38:40.149Z,5.60
2019-01-30T01:43:46.442Z,5.43
2019-01-30T01:48:54.505Z,5.20
2019-01-30T01:54:02.471Z,5.53
2019-01-30T01:59:10.191Z,5.53
2019-01-30T02:04:17.735Z,4.23
2019-01-30T02:09:24.035Z,5.87
2019-01-30T02:14:31.577Z,5.67
2019-01-30T02:19:41.632Z,6.13
2019-01-30T02:24:48.075Z,5.87
2019-01-30T02:29:54.158Z,5.47
2019-01-30T02:35:01.632Z,6.60
2019-01-30T02:40:11.386Z,6.37
2019-01-30T02:45:21.355Z,6.77
2019-01-30T02:50:28.132Z,5.13
2019-01-30T02:55:37.000Z,4.13
2019-01-30T03:00:45.379Z,4.27
2019-01-30T03:05:51.416Z,3.53
2019-01-30T03:10:57.668Z,4.63
2019-01-30T03:16:03.794Z,5.50
2019-01-30T03:21:11.992Z,6.13
2019-01-30T03:26:19.537Z,5.13
2019-01-30T03:31:26.335Z,4.73
2019-01-30T03:36:34.194Z,5.00
2019-01-30T03:41:42.031Z,4.07
2019-01-30T03:46:49.825Z,4.70
2019-01-30T03:51:55.959Z,5.00
2019-01-30T03:57:04.522Z,4.77
2019-01-30T04:02:15.516Z,4.73
2019-01-30T04:07:23.177Z,6.40
2019-01-30T04:12:32.991Z,6.63
2019-01-30T04:17:42.298Z,4.07
2019-01-30T04:22:52.755Z,7.23
2019-01-30T04:28:00.385Z,8.87
2019-01-30T04:33:09.910Z,6.23
2019-01-30T04:38:17.294Z,5.13
2019-01-30T04:43:30.503Z,2.10
2019-01-30T04:48:40.807Z,4.70
2019-01-30T04:53:48.032Z,5.83
2019-01-30T04:58:53.915Z,5.33
2019-01-30T05:04:03.531Z,4.47
2019-01-30T05:09:14.303Z,9.53
2019-01-30T05:14:24.135Z,8.30
2019-01-30T05:19:31.733Z,3.83
2019-01-30T05:24:39.908Z,3.57
2019-01-30T05:29:47.907Z,6.83
2019-01-30T05:34:53.835Z,3.97
2019-01-30T05:40:01.424Z,2.73
2019-01-30T05:45:10.451Z,5.57
2019-01-30T05:50:16.755Z,4.63
2019-01-30T05:55:23.758Z,4.50
2019-01-30T06:00:37.402Z,4.17
2019-01-30T06:05:44.642Z,5.03
2019-01-30T06:10:52.610Z,7.47
2019-01-30T06:15:59.906Z,7.63
2019-01-30T06:21:06.461Z,10.20
2019-01-30T06:26:13.599Z,7.43
2019-01-30T06:31:20.124Z,7.07
2019-01-30T06:36:31.644Z,9.40
2019-01-30T06:41:41.374Z,3.87
2019-01-30T06:46:48.391Z,3.27
2019-01-30T06:51:56.968Z,3.30
2019-01-30T06:57:05.542Z,6.67
2019-01-30T07:02:17.427Z,5.57
2019-01-30T07:07:28.629Z,10.17
2019-01-30T07:12:35.400Z,7.00
2019-01-30T07:17:43.347Z,8.73
2019-01-30T07:22:52.590Z,6.23
2019-01-30T07:28:00.696Z,4.87
2019-01-30T07:33:08.944Z,7.30
2019-01-30T07:38:16.197Z,15.03
2019-01-30T07:43:24.196Z,5.43
2019-01-30T07:48:31.886Z,8.03
2019-01-30T07:53:41.129Z,8.40
2019-01-30T07:58:48.134Z,7.63
2019-01-30T08:03:54.236Z,6.17
2019-01-30T08:09:02.274Z,6.07
2019-01-30T08:14:10.610Z,8.07
2019-01-30T08:19:17.996Z,7.27
2019-01-30T08:24:25.231Z,5.43
2019-01-30T08:29:32.949Z,3.63
2019-01-30T08:34:40.378Z,5.77
2019-01-30T08:39:48.221Z,5.03
2019-01-30T08:44:55.306Z,4.57
2019-01-30T08:50:02.977Z,5.90
2019-01-30T08:55:11.587Z,5.77
2019-01-30T09:00:19.406Z,5.03
2019-01-30T09:05:26.708Z,6.30
2019-01-30T09:10:34.083Z,4.83
2019-01-30T09:15:42.120Z,3.63
2019-01-30T09:20:48.846Z,7.40
2019-01-30T09:25:55.003Z,6.67
2019-01-30T09:31:02.854Z,7.00
2019-01-30T09:36:10.524Z,5.10
2019-01-30T09:41:18.429Z,7.60
2019-01-30T09:46:25.558Z,5.30
2019-01-30T09:51:33.575Z,5.27
2019-01-30T09:56:41.041Z,8.63
2019-01-30T10:01:50.103Z,4.03
2019-01-30T10:06:57.397Z,6.10
2019-01-30T10:12:06.329Z,7.47
2019-01-30T10:17:16.497Z,5.03
2019-01-30T10:22:24.032Z,5.70
2019-01-30T10:27:35.602Z,5.57
2019-01-30T10:32:43.464Z,4.47
2019-01-30T10:37:53.433Z,4.07
2019-01-30T10:43:01.317Z,4.07
2019-01-30T10:48:08.858Z,3.20
2019-01-30T10:53:16.437Z,5.87
2019-01-30T10:58:25.778Z,3.33
2019-01-30T11:03:34.448Z,6.37
2019-01-30T11:08:42.583Z,4.03
2019-01-30T11:13:49.849Z,3.93
2019-01-30T11:18:56.116Z,2.60
2019-01-30T11:24:04.007Z,3.83
2019-01-30T11:29:11.912Z,3.47
2019-01-30T11:34:18.704Z,4.27
2019-01-30T11:39:25.195Z,4.63
2019-01-30T11:44:31.224Z,5.57
2019-01-30T11:49:40.104Z,4.23
2019-01-30T11:54:48.632Z,2.93
2019-01-30T11:59:56.743Z,1.87
2019-01-30T12:05:09.394Z,1.83
2019-01-30T12:10:17.406Z,5.50
2019-01-30T12:15:25.301Z,3.33
2019-01-30T12:20:40.072Z,3.30
2019-01-30T12:25:47.921Z,1.87
2019-01-30T12:30:56.643Z,1.90
2019-01-30T12:36:05.618Z,2.27
2019-01-30T12:41:15.851Z,7.40
2019-01-30T12:46:23.402Z,2.23
2019-01-30T12:51:30.194Z,2.37
2019-01-30T12:56:39.162Z,2.60
2019-01-30T13:01:45.207Z,3.20
2019-01-30T13:06:55.670Z,1.33
2019-01-30T13:12:03.943Z,1.50
2019-01-30T13:17:14.739Z,3.23
2019-01-30T13:22:23.570Z,4.03
2019-01-30T13:27:31.466Z,2.77
2019-01-30T13:32:45.006Z,5.13
2019-01-30T13:37:54.218Z,2.03
2019-01-30T13:43:04.259Z,4.50
2019-01-30T13:48:17.208Z,1.57
2019-01-30T13:53:28.651Z,2.37
2019-01-30T13:58:36.274Z,1.70
2019-01-30T14:03:42.301Z,3.33
2019-01-30T14:08:52.484Z,1.10
2019-01-30T14:14:00.885Z,2.20
2019-01-30T14:19:07.620Z,2.90
2019-01-30T14:24:14.805Z,2.03
2019-01-30T14:29:22.486Z,1.03
2019-01-30T14:34:29.625Z,1.97
2019-01-30T14:39:39.078Z,2.90
2019-01-30T14:44:46.589Z,1.63
2019-01-30T14:49:54.522Z,3.33
2019-01-30T14:55:01.436Z,4.13
2019-01-30T15:00:15.210Z,1.87
2019-01-30T15:05:23.393Z,1.73
2019-01-30T15:10:31.116Z,1.57
2019-01-30T15:15:38.638Z,0.93
2019-01-30T15:20:44.534Z,2.67
2019-01-30T15:25:52.349Z,3.77
2019-01-30T15:30:59.996Z,1.60
2019-01-30T15:36:08.805Z,2.83
2019-01-30T15:41:16.746Z,2.30
2019-01-30T15:46:25.659Z,2.93
2019-01-30T15:51:37.284Z,1.60
2019-01-30T15:56:46.149Z,1.87
2019-01-30T16:01:58.052Z,2.17
2019-01-30T16:07:09.346Z,2.23
2019-01-30T16:12:17.440Z,3.13
2019-01-30T16:17:24.884Z,3.20
2019-01-30T16:22:33.616Z,3.77
2019-01-30T16:27:40.852Z,7.67
2019-01-30T16:32:46.967Z,5.33
2019-01-30T16:37:57.861Z,2.93
2019-01-30T16:43:13.259Z,12.50
2019-01-30T16:48:20.988Z,8.40
2019-01-30T16:53:31.620Z,8.87
2019-01-30T16:58:39.333Z,5.47
2019-01-30T17:03:49.583Z,3.07
2019-01-30T17:08:58.475Z,7.00
2019-01-30T17:14:07.731Z,5.67
2019-01-30T17:19:14.325Z,4.73
2019-01-30T17:24:28.834Z,6.10
2019-01-30T17:29:42.969Z,8.60
2019-01-30T17:34:51.975Z,5.57
2019-01-30T17:39:58.064Z,6.47
2019-01-30T17:45:05.931Z,6.30
2019-01-30T17:50:15.703Z,7.03
2019-01-30T17:55:22.135Z,3.93
2019-01-30T18:00:37.582Z,4.20
2019-01-30T18:05:45.150Z,5.33
2019-01-30T18:10:52.826Z,5.23
2019-01-30T18:16:01.482Z,4.20
2019-01-30T18:21:11.123Z,5.67
2019-01-30T18:26:18.075Z,8.10
2019-01-30T18:31:25.295Z,7.27
2019-01-30T18:36:40.711Z,8.07
2019-01-30T18:41:46.254Z,15.20
2019-01-30T18:46:55.149Z,7.83
2019-01-30T18:52:04.432Z,8.37
2019-01-30T18:57:12.086Z,6.67
2019-01-30T19:02:19.846Z,5.77
2019-01-30T19:07:27.704Z,8.10
2019-01-30T19:12:34.274Z,7.50
2019-01-30T19:17:42.067Z,8.63
2019-01-30T19:22:49.984Z,5.10
2019-01-30T19:27:57.551Z,7.30
2019-01-30T19:33:05.256Z,7.57
2019-01-30T19:38:13.191Z,6.30
2019-01-30T19:43:19.356Z,5.83
2019-01-30T19:48:27.652Z,5.97
2019-01-30T19:53:36.383Z,9.60
2019-01-30T19:58:44.946Z,6.70
2019-01-30T20:03:55.238Z,4.53
2019-01-30T20:09:04.574Z,8.63
2019-01-30T20:14:13.851Z,6.60
2019-01-30T20:19:21.637Z,9.33
2019-01-30T20:24:29.873Z,9.07
2019-01-30T20:29:40.193Z,6.50
2019-01-30T20:34:47.982Z,6.13
2019-01-30T20:39:58.199Z,4.47
2019-01-30T20:45:08.385Z,6.55
2019-01-30T20:50:18.714Z,5.33
2019-01-30T20:55:26.604Z,7.13
2019-01-30T21:00:36.592Z,6.27
2019-01-30T21:05:45.138Z,5.77
2019-01-30T21:10:52.346Z,13.13
2019-01-30T21:16:00.757Z,4.40
2019-01-30T21:21:09.951Z,4.07
2019-01-30T21:26:21.100Z,10.37
2019-01-30T21:31:29.462Z,14.33
2019-01-30T21:36:35.594Z,9.23
2019-01-30T21:41:45.765Z,11.83
2019-01-30T21:46:53.713Z,13.43
2019-01-30T21:52:01.009Z,8.77
2019-01-30T21:57:08.932Z,14.83
2019-01-30T22:02:15.566Z,16.83
2019-01-30T22:07:23.489Z,9.73
2019-01-30T22:12:31.267Z,10.67
2019-01-30T22:17:38.223Z,7.03
2019-01-30T22:22:47.079Z,9.37
2019-01-30T22:27:54.749Z,14.23
2019-01-30T22:33:02.569Z,7.03
2019-01-30T22:38:12.476Z,9.40
2019-01-30T22:43:18.490Z,10.50
2019-01-30T22:48:26.285Z,10.83
2019-01-30T22:53:36.362Z,10.93
2019-01-30T22:58:45.014Z,6.77
2019-01-30T23:04:16.968Z,6.40
2019-01-30T23:10:08.578Z,6.93
2019-01-30T23:15:28.560Z,9.47
2019-01-30T23:20:49.247Z,7.53
2019-01-30T23:26:34.312Z,7.47
2019-01-30T23:31:56.970Z,8.57
2019-01-30T23:37:25.798Z,6.23
2019-01-30T23:42:51.989Z,5.50
2019-01-30T23:48:23.972Z,7.73
2019-01-30T23:53:54.175Z,10.13
2019-01-30T23:59:26.166Z,7.67
